Time;durP1;ratioP1;P1;durP2;ratioP2;P2;SDS_P1;SDS_P2;PMS_P1;PMS_P2;Temp;Humidity;BMP_temperature;BMP_pressure;BME280_temperature;BME280_humidity;BME280_pressure;Samples;Min_cycle;Max_cycle;Signal;HPM_P1;HPM_P2
2023/10/14 00:00:26;;;;;;;;;;;;;;;16.59;100.00;99889.44;4962568;28;19930;-78
2023/10/14 00:02:52;;;;;;;;;;;;;;;16.62;100.00;99889.09;4961193;28;19922;-78
2023/10/14 00:05:19;;;;;;;;;;;;;;;16.66;100.00;99885.09;4964509;28;20009;-79
2023/10/14 00:07:45;;;;;;;;;;;;;;;16.69;100.00;99879.41;4963945;28;19922;-79
2023/10/14 00:10:10;;;;;;;;;;;;;;;16.73;100.00;99883.38;4962918;28;19925;-78
2023/10/14 00:12:39;;;;;;;;;;;;;;;16.72;100.00;99884.41;4967741;28;19973;-78
2023/10/14 00:15:05;;;;;;;;;;;;;;;16.76;100.00;99883.03;4961732;28;19961;-79
2023/10/14 00:17:41;;;;;;;;;;;;;;;16.73;100.00;99880.72;4957870;28;20360;-79
2023/10/14 00:20:09;;;;;;;;;;;;;;;16.67;100.00;99870.75;4967223;28;19929;-79
2023/10/14 00:22:38;;;;;;;;;;;;;;;16.53;100.00;99875.97;4964687;28;19919;-79
2023/10/14 00:25:09;;;;;;;;;;;;;;;16.53;100.00;99875.97;4970223;28;20039;-79
2023/10/14 00:27:34;;;;;;;;;;;;;;;16.54;100.00;99873.13;4973359;28;20390;-78
2023/10/14 00:30:12;;;;;;;;;;;;;;;16.62;100.00;99859.78;4971673;28;19922;-78
2023/10/14 00:32:38;;;;;;;;;;;;;;;16.55;100.00;99856.13;4965465;28;19926;-78
2023/10/14 00:35:07;;;;;;;;;;;;;;;16.52;100.00;99856.47;4971514;28;19930;-78
2023/10/14 00:37:33;;;;;;;;;;;;;;;16.52;100.00;99845.81;4970892;28;19922;-78
2023/10/14 00:40:11;;;;;;;;;;;;;;;16.56;100.00;99843.63;4979372;28;19922;-78
2023/10/14 00:42:37;;;;;;;;;;;;;;;16.40;100.00;99847.19;4964225;28;19922;-79
2023/10/14 00:45:09;;;;;;;;;;;;;;;16.44;100.00;99840.53;4983962;28;19944;-78
2023/10/14 00:47:37;;;;;;;;;;;;;;;16.43;100.00;99840.72;4984420;28;19926;-77
2023/10/14 00:50:17;;;;;;;;;;;;;;;16.36;100.00;99835.25;4980262;28;19925;-78
2023/10/14 00:52:53;;;;;;;;;;;;;;;16.23;100.00;99840.28;4983859;28;20355;-78
2023/10/14 00:55:24;;;;;;;;;;;;;;;16.22;100.00;99834.13;4973666;28;19969;-78
2023/10/14 00:57:54;;;;;;;;;;;;;;;16.31;100.00;99829.63;4965081;28;19923;-79
2023/10/14 01:00:22;;;;;;;;;;;;;;;16.37;100.00;99826.25;4969194;28;19926;-79
2023/10/14 01:02:48;;;;;;;;;;;;;;;16.36;100.00;99824.59;4968893;28;20041;-79
2023/10/14 01:05:19;;;;;;;;;;;;;;;16.32;100.00;99820.59;4965253;28;20560;-79
2023/10/14 01:07:47;;;;;;;;;;;;;;;16.32;100.00;99817.94;4974349;28;20028;-78
2023/10/14 01:10:23;;;;;;;;;;;;;;;16.36;100.00;99819.28;4968736;28;20298;-78
2023/10/14 01:12:54;;;;;;;;;;;;;;;16.33;100.00;99803.63;4967288;28;19926;-79
2023/10/14 01:15:20;;;;;;;;;;;;;;;16.35;100.00;99804.28;4969965;28;19922;-78
2023/10/14 01:17:46;;;;;;;;;;;;;;;16.34;100.00;99807.94;4965395;28;19922;-78
2023/10/14 01:22:51;;;;;;;;;;;;;;;16.33;100.00;99803.63;4967377;28;20367;-79
2023/10/14 01:25:19;;;;;;;;;;;;;;;16.41;100.00;99795.59;4988723;28;20096;-79
2023/10/14 01:27:45;;;;;;;;;;;;;;;16.40;100.00;99793.94;4966160;28;19922;-79
2023/10/14 01:30:13;;;;;;;;;;;;;;;16.36;100.00;99803.28;4966135;28;19922;-77
2023/10/14 01:35:13;;;;;;;;;;;;;;;16.05;100.00;99799.75;4969947;28;20011;-77
2023/10/14 01:37:45;;;;;;;;;;;;;;;15.89;100.00;99805.97;4966595;28;19922;-79
2023/10/14 01:43:06;;;;;;;;;;;;;;;15.95;100.00;99795.47;4958556;28;19923;-79
2023/10/14 01:45:39;;;;;;;;;;;;;;;15.97;100.00;99782.78;4960340;28;20331;-79
2023/10/14 01:50:34;;;;;;;;;;;;;;;15.97;100.00;99785.47;4966002;28;19954;-79
2023/10/14 01:53:09;;;;;;;;;;;;;;;16.01;100.00;99785.13;4968919;28;19969;-79
2023/10/14 01:55:35;;;;;;;;;;;;;;;15.95;100.00;99781.31;4966480;28;20287;-79
2023/10/14 01:58:02;;;;;;;;;;;;;;;15.74;100.00;99765.91;4963305;28;19922;-79
2023/10/14 02:00:35;;;;;;;;;;;;;;;15.61;100.00;99778.09;4966537;28;20012;-79
2023/10/14 02:03:05;;;;;;;;;;;;;;;15.48;100.00;99775.94;4963873;28;19927;-79
2023/10/14 02:05:42;;;;;;;;;;;;;;;15.55;100.00;99766.31;4967988;28;20343;-79
2023/10/14 02:08:21;;;;;;;;;;;;;;;15.61;100.00;99770.91;4964923;28;20278;-79
2023/10/14 02:10:46;;;;;;;;;;;;;;;15.60;100.00;99763.97;4968478;28;20326;-78
2023/10/14 02:13:18;;;;;;;;;;;;;;;15.53;100.00;99774.44;4959894;28;19977;-79
2023/10/14 02:15:46;;;;;;;;;;;;;;;15.44;100.00;99769.25;4968334;28;19929;-79
2023/10/14 02:18:20;;;;;;;;;;;;;;;15.21;100.00;99768.28;4965756;28;20354;-79
2023/10/14 02:20:57;;;;;;;;;;;;;;;15.27;100.00;99767.63;4966823;28;20012;-78
2023/10/14 02:23:27;;;;;;;;;;;;;;;15.28;100.00;99763.97;4966905;28;19922;-78
2023/10/14 02:25:56;;;;;;;;;;;;;;;15.34;100.00;99765.97;4960992;28;19922;-79
2023/10/14 02:28:27;;;;;;;;;;;;;;;15.38;100.00;99761.97;4962315;28;20291;-79
2023/10/14 02:30:59;;;;;;;;;;;;;;;15.25;100.00;99759.00;4965823;28;19957;-78
2023/10/14 02:33:24;;;;;;;;;;;;;;;15.17;100.00;99757.16;4964687;28;19977;-78
2023/10/14 02:35:50;;;;;;;;;;;;;;;15.20;100.00;99756.03;4963474;28;19923;-78
2023/10/14 02:38:17;;;;;;;;;;;;;;;15.26;100.00;99755.31;4965510;28;20295;-78
2023/10/14 02:40:42;;;;;;;;;;;;;;;15.25;100.00;99753.69;4966720;28;19926;-79
2023/10/14 02:43:08;;;;;;;;;;;;;;;15.28;100.00;99743.53;4966901;28;19922;-78
2023/10/14 02:45:38;;;;;;;;;;;;;;;15.27;100.00;99741.03;4964131;28;19966;-79
2023/10/14 02:48:04;;;;;;;;;;;;;;;15.31;100.00;99737.06;4966818;28;19957;-79
2023/10/14 02:50:32;;;;;;;;;;;;;;;15.36;100.00;99721.44;4964954;28;19926;-79
2023/10/14 02:53:06;;;;;;;;;;;;;;;15.40;100.00;99730.72;4961425;28;20258;-79
2023/10/14 02:56:07;;;;;;;;;;;;;;;15.47;100.00;99729.03;4965719;28;20528;-78
2023/10/14 02:58:25;;;;;;;;;;;;;;;15.51;100.00;99714.41;4963846;28;19928;-79
2023/10/14 03:00:58;;;;;;;;;;;;;;;15.56;100.00;99720.91;4966881;28;19926;-79
2023/10/14 03:03:24;;;;;;;;;;;;;;;15.54;100.00;99727.41;4964041;28;19922;-78
2023/10/14 03:05:52;;;;;;;;;;;;;;;15.49;100.00;99725.19;4967373;28;19922;-79
2023/10/14 03:08:18;;;;;;;;;;;;;;;15.39;100.00;99729.06;4965283;28;20362;-78
2023/10/14 03:10:55;;;;;;;;;;;;;;;15.34;100.00;99731.41;4947253;28;20019;-80
2023/10/14 03:13:22;;;;;;;;;;;;;;;15.28;100.00;99724.09;4961354;28;19922;-79
2023/10/14 03:15:52;;;;;;;;;;;;;;;15.22;100.00;99720.28;4963110;28;19929;-79
2023/10/14 03:18:18;;;;;;;;;;;;;;;15.27;100.00;99709.13;4961352;28;19958;-79
2023/10/14 03:23:18;;;;;;;;;;;;;;;15.26;100.00;99708.31;4965034;28;20021;-78
2023/10/14 03:25:45;;;;;;;;;;;;;;;15.26;100.00;99705.66;4961800;28;19922;-79
2023/10/14 03:30:37;;;;;;;;;;;;;;;15.08;100.00;99699.69;4962997;28;19934;-79
2023/10/14 03:33:10;;;;;;;;;;;;;;;14.97;100.00;99698.22;4967050;28;19928;-79
2023/10/14 03:35:36;;;;;;;;;;;;;;;14.98;100.00;99699.88;4963168;28;19977;-79
2023/10/14 03:38:11;;;;;;;;;;;;;;;15.00;100.00;99694.41;4966898;28;20005;-78
2023/10/14 03:43:15;;;;;;;;;;;;;;;15.12;100.00;99695.72;4961250;28;20432;-79
2023/10/14 03:48:48;;;;;;;;;;;;;;;15.16;100.00;99687.22;4932921;28;19985;-79
2023/10/14 03:51:23;;;;;;;;;;;;;;;15.05;100.00;99684.94;4963990;28;19918;-79
2023/10/14 03:53:52;;;;;;;;;;;;;;;14.95;100.00;99689.59;4965426;28;19926;-79
2023/10/14 03:56:17;;;;;;;;;;;;;;;14.81;100.00;99692.91;4968225;28;19930;-79
2023/10/14 03:58:45;;;;;;;;;;;;;;;14.67;100.00;99690.91;4968418;28;20370;-79
2023/10/14 04:01:12;;;;;;;;;;;;;;;14.70;100.00;99677.31;4971312;28;20497;-79
2023/10/14 04:03:40;;;;;;;;;;;;;;;14.59;100.00;99682.94;4968619;28;19981;-80
2023/10/14 04:06:08;;;;;;;;;;;;;;;14.36;100.00;99682.72;4969848;28;19922;-79
2023/10/14 04:08:49;;;;;;;;;;;;;;;14.30;100.00;99684.22;4951188;28;20012;-79
2023/10/14 04:11:25;;;;;;;;;;;;;;;14.23;100.00;99682.38;4968620;28;20051;-79
2023/10/14 04:14:04;;;;;;;;;;;;;;;14.25;100.00;99686.53;4969603;28;20302;-79
2023/10/14 04:21:53;;;;;;;;;;;;;;;14.47;100.00;99678.97;4968128;28;19925;-79
2023/10/14 04:26:44;;;;;;;;;;;;;;;14.53;100.00;99680.94;4963730;28;19966;-79
2023/10/14 04:31:56;;;;;;;;;;;;;;;14.68;100.00;99668.66;4963523;28;20713;-79
2023/10/14 04:34:22;;;;;;;;;;;;;;;14.74;100.00;99670.66;4969908;28;19922;-78
2023/10/14 04:36:57;;;;;;;;;;;;;;;14.72;100.00;99672.66;4967057;28;19973;-79
2023/10/14 04:39:27;;;;;;;;;;;;;;;14.70;100.00;99669.34;4965437;28;20271;-78
2023/10/14 04:41:55;;;;;;;;;;;;;;;14.62;100.00;99666.66;4970191;28;20274;-78
2023/10/14 04:44:23;;;;;;;;;;;;;;;14.62;100.00;99667.50;4966239;28;19960;-79
2023/10/14 04:46:54;;;;;;;;;;;;;;;14.67;100.00;99681.09;4966725;28;19923;-79
2023/10/14 04:49:35;;;;;;;;;;;;;;;14.52;100.00;99679.28;4968572;28;19929;-79
2023/10/14 04:52:02;;;;;;;;;;;;;;;14.33;100.00;99678.56;4966766;28;20398;-79
2023/10/14 04:54:29;;;;;;;;;;;;;;;14.25;100.00;99681.22;4969779;28;19925;-78
2023/10/14 04:56:57;;;;;;;;;;;;;;;14.32;100.00;99671.59;4965241;28;19926;-78
2023/10/14 04:59:24;;;;;;;;;;;;;;;14.40;100.00;99678.78;4965548;28;19972;-79
2023/10/14 05:01:50;;;;;;;;;;;;;;;14.42;100.00;99681.28;4962440;28;20342;-79
2023/10/14 05:04:20;;;;;;;;;;;;;;;14.37;100.00;99683.56;4966310;28;20345;-79
2023/10/14 05:06:52;;;;;;;;;;;;;;;14.41;100.00;99679.63;4964456;28;19929;-80
2023/10/14 05:09:30;;;;;;;;;;;;;;;14.39;100.00;99686.91;4965437;28;19930;-78
2023/10/14 05:11:56;;;;;;;;;;;;;;;14.24;100.00;99678.72;4969813;28;19934;-79
2023/10/14 05:14:34;;;;;;;;;;;;;;;14.02;100.00;99680.16;4963676;28;19929;-79
2023/10/14 05:17:05;;;;;;;;;;;;;;;14.02;100.00;99674.84;4968520;28;19922;-78
2023/10/14 05:19:41;;;;;;;;;;;;;;;14.08;100.00;99666.22;4966141;28;19922;-80
2023/10/14 05:22:13;;;;;;;;;;;;;;;14.07;100.00;99661.94;4964204;28;19969;-79
2023/10/14 05:24:45;;;;;;;;;;;;;;;14.02;100.00;99656.28;4967331;28;20020;-80
2023/10/14 05:27:11;;;;;;;;;;;;;;;13.91;100.00;99662.72;4970730;28;19922;-80
2023/10/14 05:29:36;;;;;;;;;;;;;;;13.98;100.00;99660.25;4968606;28;19953;-79
2023/10/14 05:32:10;;;;;;;;;;;;;;;14.00;100.00;99660.94;4966737;28;19923;-80
2023/10/14 05:34:36;;;;;;;;;;;;;;;14.07;100.00;99663.75;4964068;28;20344;-81
2023/10/14 05:37:01;;;;;;;;;;;;;;;14.09;100.00;99665.25;4965104;28;20041;-81
2023/10/14 05:39:36;;;;;;;;;;;;;;;14.14;100.00;99667.41;4963310;28;19926;-81
2023/10/14 05:42:04;;;;;;;;;;;;;;;14.18;100.00;99664.28;4966112;28;20012;-81
2023/10/14 05:44:29;;;;;;;;;;;;;;;14.24;100.00;99660.16;4965126;28;19937;-80
2023/10/14 05:46:55;;;;;;;;;;;;;;;14.27;100.00;99663.28;4963044;28;19922;-80
2023/10/14 05:49:24;;;;;;;;;;;;;;;14.32;100.00;99655.66;4962896;28;19950;-80
2023/10/14 05:51:52;;;;;;;;;;;;;;;14.35;100.00;99665.97;4965676;28;19974;-80
2023/10/14 05:54:18;;;;;;;;;;;;;;;14.38;100.00;99679.91;4966804;28;19930;-80
2023/10/14 05:56:44;;;;;;;;;;;;;;;14.35;100.00;99676.59;4961730;28;19969;-79
2023/10/14 05:59:10;;;;;;;;;;;;;;;14.30;100.00;99670.94;4960125;28;19922;-77
2023/10/14 06:01:38;;;;;;;;;;;;;;;14.11;100.00;99673.88;4966075;28;19926;-79
2023/10/14 06:04:03;;;;;;;;;;;;;;;14.08;100.00;99679.50;4964016;28;19997;-78
2023/10/14 06:06:31;;;;;;;;;;;;;;;13.98;100.00;99681.47;4961626;28;19926;-79
2023/10/14 06:09:00;;;;;;;;;;;;;;;13.89;100.00;99685.09;4961352;28;20017;-79
2023/10/14 06:11:25;;;;;;;;;;;;;;;13.95;100.00;99689.78;4964986;28;19945;-79
2023/10/14 06:13:51;;;;;;;;;;;;;;;13.92;100.00;99684.78;4960714;28;19980;-79
2023/10/14 06:16:16;;;;;;;;;;;;;;;13.93;100.00;99681.13;4963506;28;19980;-79
2023/10/14 06:18:44;;;;;;;;;;;;;;;13.98;100.00;99689.44;4962323;28;19954;-80
2023/10/14 06:21:10;;;;;;;;;;;;;;;14.03;100.00;99691.59;4962361;28;19930;-79
2023/10/14 06:23:39;;;;;;;;;;;;;;;14.06;100.00;99689.47;4966731;28;19922;-79
2023/10/14 06:26:05;;;;;;;;;;;;;;;14.13;100.00;99677.22;4960612;28;20021;-80
2023/10/14 06:28:31;;;;;;;;;;;;;;;14.09;100.00;99686.47;4966675;28;19999;-79
2023/10/14 06:31:00;;;;;;;;;;;;;;;14.16;100.00;99679.53;4960681;28;20019;-79
2023/10/14 06:33:26;;;;;;;;;;;;;;;14.22;100.00;99686.00;4968706;28;19922;-79
2023/10/14 06:35:52;;;;;;;;;;;;;;;14.29;100.00;99679.91;4960306;28;19922;-80
2023/10/14 06:38:19;;;;;;;;;;;;;;;14.33;100.00;99688.34;4965093;28;20383;-79
2023/10/14 06:40:52;;;;;;;;;;;;;;;14.40;100.00;99681.44;4966635;28;19949;-80
2023/10/14 06:43:19;;;;;;;;;;;;;;;14.51;100.00;99688.25;4967197;28;20305;-79
2023/10/14 06:45:46;;;;;;;;;;;;;;;14.52;100.00;99681.94;4963930;28;20016;-80
2023/10/14 06:48:13;;;;;;;;;;;;;;;14.59;100.00;99682.94;4964998;28;20268;-80
2023/10/14 06:50:41;;;;;;;;;;;;;;;14.65;100.00;99684.94;4963574;28;19929;-80
2023/10/14 06:53:10;;;;;;;;;;;;;;;14.77;100.00;99675.66;4961298;28;19949;-87
2023/10/14 06:55:39;;;;;;;;;;;;;;;14.88;100.00;99683.28;4962702;28;20414;-86
2023/10/14 06:58:07;;;;;;;;;;;;;;;14.98;100.00;99680.44;4963148;28;19922;-86
2023/10/14 07:00:33;;;;;;;;;;;;;;;15.06;100.00;99675.97;4964923;28;19930;-84
2023/10/14 07:03:01;;;;;;;;;;;;;;;15.07;100.00;99680.28;4970422;28;19922;-83
2023/10/14 07:05:30;;;;;;;;;;;;;;;15.06;100.00;99675.97;4958959;28;19923;-82
2023/10/14 07:07:58;;;;;;;;;;;;;;;15.12;100.00;99675.28;4961372;28;20372;-82
2023/10/14 07:10:33;;;;;;;;;;;;;;;15.09;100.00;99672.13;4959931;28;20013;-83
2023/10/14 07:13:00;;;;;;;;;;;;;;;14.99;100.00;99674.97;4965209;28;19929;-81
2023/10/14 07:15:26;;;;;;;;;;;;;;;15.04;100.00;99675.28;4965581;28;20287;-80
2023/10/14 07:17:54;;;;;;;;;;;;;;;15.07;100.00;99672.31;4966573;28;19926;-81
2023/10/14 07:20:20;;;;;;;;;;;;;;;15.12;100.00;99667.31;4962770;28;19926;-81
2023/10/14 07:22:45;;;;;;;;;;;;;;;15.23;100.00;99667.94;4962853;28;20295;-82
2023/10/14 07:25:11;;;;;;;;;;;;;;;15.31;100.00;99673.25;4965174;28;20363;-84
2023/10/14 07:27:39;;;;;;;;;;;;;;;15.48;100.00;99669.53;4964743;28;20023;-84
2023/10/14 07:30:14;;;;;;;;;;;;;;;15.59;100.00;99660.41;4960000;28;20287;-81
2023/10/14 07:32:43;;;;;;;;;;;;;;;15.73;100.00;99655.16;4965947;28;20050;-82
2023/10/14 07:35:11;;;;;;;;;;;;;;;15.84;100.00;99649.47;4962209;28;19931;-80
2023/10/14 07:37:48;;;;;;;;;;;;;;;15.96;100.00;99653.38;4963893;28;20147;-82
2023/10/14 07:40:23;;;;;;;;;;;;;;;16.07;100.00;99654.84;4962530;28;19930;-83
2023/10/14 07:43:08;;;;;;;;;;;;;;;16.21;100.00;99661.22;4967626;28;20375;-80
2023/10/14 07:45:43;;;;;;;;;;;;;;;16.33;100.00;99659.81;4961610;28;19922;-83
2023/10/14 07:48:09;;;;;;;;;;;;;;;16.43;100.00;99660.44;4964936;28;19933;-83
2023/10/14 07:50:38;;;;;;;;;;;;;;;16.54;100.00;99662.69;4966540;28;19938;-82
2023/10/14 07:53:08;;;;;;;;;;;;;;;16.61;100.00;99663.63;4967825;28;19930;-82
2023/10/14 07:55:40;;;;;;;;;;;;;;;16.67;100.00;99657.59;4965144;28;19922;-83
2023/10/14 07:58:10;;;;;;;;;;;;;;;16.74;100.00;99657.69;4954878;28;19945;-84
2023/10/14 08:00:39;;;;;;;;;;;;;;;16.82;100.00;99656.81;4965143;28;19974;-83
2023/10/14 08:03:06;;;;;;;;;;;;;;;16.85;100.00;99664.47;4969354;28;19922;-83
2023/10/14 08:05:37;;;;;;;;;;;;;;;16.81;100.00;99663.13;4956462;28;20391;-87
2023/10/14 08:08:06;;;;;;;;;;;;;;;16.87;100.00;99657.09;4962452;28;19977;-84
2023/10/14 08:10:32;;;;;;;;;;;;;;;16.99;100.00;99652.97;4963042;28;20347;-83
2023/10/14 08:13:01;;;;;;;;;;;;;;;17.07;100.00;99663.56;4964509;28;19932;-84
2023/10/14 08:15:29;;;;;;;;;;;;;;;17.19;100.00;99662.13;4961967;28;19929;-79
2023/10/14 08:17:57;;;;;;;;;;;;;;;17.26;100.00;99652.34;4965242;28;19926;-79
2023/10/14 08:20:23;;;;;;;;;;;;;;;17.36;100.00;99646.78;4958066;28;19922;-81
2023/10/14 08:22:48;;;;;;;;;;;;;;;17.42;100.00;99646.88;4964559;28;19922;-83
2023/10/14 08:25:15;;;;;;;;;;;;;;;17.41;100.00;99647.88;4962641;28;19922;-79
2023/10/14 08:27:41;;;;;;;;;;;;;;;17.47;100.00;99633.78;4960486;28;20346;-77
2023/10/14 08:30:12;;;;;;;;;;;;;;;17.54;100.00;99639.22;4963452;28;19922;-77
2023/10/14 08:32:41;;;;;;;;;;;;;;;17.58;100.00;99624.50;4963635;28;19926;-76
2023/10/14 08:35:14;;;;;;;;;;;;;;;17.71;100.00;99626.53;4966073;28;19954;-77
2023/10/14 08:37:50;;;;;;;;;;;;;;;17.81;100.00;99630.56;4963403;28;19935;-77
2023/10/14 08:40:19;;;;;;;;;;;;;;;17.88;100.00;99625.28;4964457;28;19989;-78
2023/10/14 08:42:46;;;;;;;;;;;;;;;17.94;100.00;99633.38;4974983;28;19929;-79
2023/10/14 08:45:12;;;;;;;;;;;;;;;17.96;100.00;99635.88;4963777;28;20374;-78
2023/10/14 08:47:40;;;;;;;;;;;;;;;18.00;100.00;99629.13;4965355;28;19933;-78
2023/10/14 08:50:09;;;;;;;;;;;;;;;18.06;100.00;99631.03;4967097;28;20505;-78
2023/10/14 08:52:37;;;;;;;;;;;;;;;18.10;100.00;99629.66;4962861;28;20022;-78
2023/10/14 08:55:05;;;;;;;;;;;;;;;18.18;100.00;99629.53;4966215;28;19922;-81
2023/10/14 08:57:31;;;;;;;;;;;;;;;18.23;100.00;99626.28;4962646;28;20018;-80
2023/10/14 08:59:56;;;;;;;;;;;;;;;18.27;100.00;99628.38;4970629;28;20012;-80
2023/10/14 09:02:22;;;;;;;;;;;;;;;18.33;100.00;99629.47;4967428;28;20311;-78
2023/10/14 09:04:47;;;;;;;;;;;;;;;18.37;100.00;99630.75;4966407;28;19931;-79
2023/10/14 09:07:13;;;;;;;;;;;;;;;18.38;100.00;99632.38;4966702;28;20466;-79
2023/10/14 09:09:38;;;;;;;;;;;;;;;18.40;100.00;99628.53;4965430;28;19985;-79
2023/10/14 09:12:11;;;;;;;;;;;;;;;18.43;100.00;99627.31;4970739;28;20386;-79
2023/10/14 09:14:37;;;;;;;;;;;;;;;18.50;100.00;99635.38;4967325;28;19922;-79
2023/10/14 09:17:09;;;;;;;;;;;;;;;18.51;100.00;99631.69;4961787;28;19929;-79
2023/10/14 09:19:48;;;;;;;;;;;;;;;18.59;100.00;99626.25;4967528;28;19953;-79
2023/10/14 09:22:24;;;;;;;;;;;;;;;18.66;100.00;99619.97;4967182;28;20326;-79
2023/10/14 09:24:50;;;;;;;;;;;;;;;18.75;100.00;99617.94;4967335;28;20712;-79
2023/10/14 09:27:16;;;;;;;;;;;;;;;18.83;100.00;99609.81;4966451;28;19930;-79
2023/10/14 09:29:42;;;;;;;;;;;;;;;18.90;100.00;99616.03;4966284;28;19922;-80
2023/10/14 09:32:07;;;;;;;;;;;;;;;18.96;100.00;99611.75;4964717;28;19926;-83
2023/10/14 09:34:33;;;;;;;;;;;;;;;19.04;100.00;99612.41;4961765;28;19922;-81
2023/10/14 09:37:03;;;;;;;;;;;;;;;19.10;100.00;99611.63;4967896;28;20017;-81
2023/10/14 09:39:29;;;;;;;;;;;;;;;19.15;100.00;99603.84;4964885;28;19930;-81
2023/10/14 09:41:56;;;;;;;;;;;;;;;19.24;100.00;99604.50;4969960;28;19929;-80
2023/10/14 09:44:22;;;;;;;;;;;;;;;19.31;100.00;99601.88;4964249;28;19929;-82
2023/10/14 09:46:48;;;;;;;;;;;;;;;19.41;100.00;99599.66;4966794;28;20104;-79
2023/10/14 09:49:15;;;;;;;;;;;;;;;19.50;100.00;99601.16;4964069;28;19923;-80
2023/10/14 09:51:48;;;;;;;;;;;;;;;19.60;100.00;99601.63;4966939;28;19923;-81
2023/10/14 09:54:15;;;;;;;;;;;;;;;19.70;100.00;99601.25;4967802;28;19922;-82
2023/10/14 09:56:40;;;;;;;;;;;;;;;19.79;100.00;99595.50;4963778;28;19922;-82
2023/10/14 09:59:07;;;;;;;;;;;;;;;19.90;100.00;99599.47;4966590;28;19923;-82
2023/10/14 10:01:32;;;;;;;;;;;;;;;19.98;100.00;99593.94;4962007;28;19949;-83
2023/10/14 10:04:13;;;;;;;;;;;;;;;20.07;100.00;99589.22;4968191;28;19926;-78
2023/10/14 10:06:43;;;;;;;;;;;;;;;20.16;100.00;99574.59;4965294;28;19926;-82
2023/10/14 10:09:18;;;;;;;;;;;;;;;20.26;100.00;99575.03;4967799;28;19926;-81
2023/10/14 10:11:46;;;;;;;;;;;;;;;20.35;100.00;99573.81;4968726;28;20069;-81
2023/10/14 10:14:12;;;;;;;;;;;;;;;20.48;100.00;99568.47;5010034;23;19941;-82
2023/10/14 10:16:41;;;;;;;;;;;;;;;20.58;100.00;99566.19;4959331;28;19917;-81
2023/10/14 10:19:08;;;;;;;;;;;;;;;20.67;100.00;99575.69;4945029;29;19926;-81
2023/10/14 10:21:43;;;;;;;;;;;;;;;20.73;100.00;99574.88;4943849;29;19923;-82
2023/10/14 10:24:31;;;;;;;;;;;;;;;20.76;100.00;99582.50;4947876;29;19973;-81
2023/10/14 10:27:05;;;;;;;;;;;;;;;20.83;100.00;99586.00;4943935;29;19930;-81
2023/10/14 10:29:34;;;;;;;;;;;;;;;20.90;100.00;99582.47;4943899;29;19953;-81
2023/10/14 10:32:09;;;;;;;;;;;;;;;20.99;100.00;99582.03;4948090;29;19929;-82
2023/10/14 10:34:54;;;;;;;;;;;;;;;21.07;100.00;99572.97;4943718;29;20299;-82
2023/10/14 10:37:19;;;;;;;;;;;;;;;21.11;100.00;99568.81;4947488;29;19958;-81
2023/10/14 10:39:45;;;;;;;;;;;;;;;21.15;100.00;99575.44;4945719;28;19957;-82
2023/10/14 10:42:10;;;;;;;;;;;;;;;21.17;100.00;99574.19;4946985;29;19922;-82
2023/10/14 10:44:36;;;;;;;;;;;;;;;21.22;100.00;99571.69;4944669;29;20013;-82
2023/10/14 10:47:04;;;;;;;;;;;;;;;21.29;100.00;99566.31;4946454;29;20343;-82
2023/10/14 10:49:48;;;;;;;;;;;;;;;21.39;100.00;99555.94;4947107;29;19926;-82
2023/10/14 10:52:14;;;;;;;;;;;;;;;21.46;100.00;99551.38;4942844;29;19925;-82
2023/10/14 10:54:43;;;;;;;;;;;;;;;21.51;100.00;99554.25;4945747;29;19926;-81
2023/10/14 10:57:08;;;;;;;;;;;;;;;21.57;100.00;99531.09;4945575;29;19925;-81
2023/10/14 10:59:37;;;;;;;;;;;;;;;21.64;100.00;99532.72;4946591;29;19926;-82
2023/10/14 11:02:02;;;;;;;;;;;;;;;21.76;100.00;99537.41;4944062;29;19918;-81
2023/10/14 11:04:30;;;;;;;;;;;;;;;21.85;100.00;99523.50;4947350;28;19929;-81
2023/10/14 11:06:55;;;;;;;;;;;;;;;21.94;100.00;99526.75;4947888;29;19923;-80
2023/10/14 11:09:21;;;;;;;;;;;;;;;21.97;100.00;99531.75;4944954;29;19933;-81
2023/10/14 11:11:48;;;;;;;;;;;;;;;21.99;100.00;99535.00;4947506;29;19922;-81
2023/10/14 11:14:14;;;;;;;;;;;;;;;22.02;100.00;99527.34;4945039;29;19923;-81
2023/10/14 11:16:42;;;;;;;;;;;;;;;22.08;100.00;99527.53;4944633;29;19933;-80
2023/10/14 11:19:08;;;;;;;;;;;;;;;22.15;100.00;99518.34;4946843;29;19922;-81
2023/10/14 11:21:37;;;;;;;;;;;;;;;22.28;100.00;99517.44;4944788;29;20016;-81
2023/10/14 11:24:04;;;;;;;;;;;;;;;22.46;100.00;99493.28;4941292;29;19930;-81
2023/10/14 11:26:29;;;;;;;;;;;;;;;22.65;100.00;99503.03;4945137;29;19950;-81
2023/10/14 11:28:54;;;;;;;;;;;;;;;22.81;100.00;99501.66;4942177;29;19923;-81
2023/10/14 11:31:20;;;;;;;;;;;;;;;22.93;100.00;99499.06;4945248;29;19922;-81
2023/10/14 11:33:46;;;;;;;;;;;;;;;22.90;100.00;99497.66;4944918;29;19922;-81
2023/10/14 11:36:20;;;;;;;;;;;;;;;22.95;100.00;99487.03;4945596;29;20021;-81
2023/10/14 11:38:49;;;;;;;;;;;;;;;23.08;100.00;99478.81;4943875;28;19926;-81
2023/10/14 11:41:15;;;;;;;;;;;;;;;23.16;100.00;99470.41;4944844;29;20341;-81
2023/10/14 11:43:44;;;;;;;;;;;;;;;23.17;100.00;99474.75;4928578;29;19969;-80
2023/10/14 11:46:10;;;;;;;;;;;;;;;23.25;100.00;99458.28;4944744;29;20017;-81
2023/10/14 11:48:37;;;;;;;;;;;;;;;23.35;100.00;99454.22;4945559;29;19977;-81
2023/10/14 11:51:03;;;;;;;;;;;;;;;23.33;100.00;99450.97;4944687;29;19989;-81
2023/10/14 11:53:32;;;;;;;;;;;;;;;23.40;100.00;99446.28;4942300;29;20014;-81
2023/10/14 11:55:58;;;;;;;;;;;;;;;23.49;100.00;99447.66;4947177;29;19966;-80
2023/10/14 11:58:31;;;;;;;;;;;;;;;23.58;100.00;99436.31;4944350;29;19990;-82
2023/10/14 12:00:57;;;;;;;;;;;;;;;23.69;100.00;99434.69;4943612;29;19922;-80
2023/10/14 12:03:25;;;;;;;;;;;;;;;23.79;100.00;99421.50;4946662;29;20482;-81
2023/10/14 12:05:57;;;;;;;;;;;;;;;23.77;100.00;99415.53;4946483;29;19942;-82
2023/10/14 12:08:33;;;;;;;;;;;;;;;23.82;100.00;99412.94;4941600;29;20358;-80
2023/10/14 12:10:59;;;;;;;;;;;;;;;23.99;100.00;99408.50;4940531;29;19923;-79
2023/10/14 12:13:25;;;;;;;;;;;;;;;24.08;100.00;99412.53;4940571;29;19922;-81
2023/10/14 12:15:51;;;;;;;;;;;;;;;24.11;100.00;99421.19;4945182;29;19926;-80
2023/10/14 12:18:16;;;;;;;;;;;;;;;24.19;100.00;99424.41;4944934;29;19993;-81
2023/10/14 12:20:46;;;;;;;;;;;;;;;24.29;100.00;99418.41;4944218;29;19942;-81
2023/10/14 12:23:12;;;;;;;;;;;;;;;24.45;100.00;99415.00;4945722;29;20009;-81
2023/10/14 12:25:37;;;;;;;;;;;;;;;24.65;100.00;99411.94;4944907;29;20419;-81
2023/10/14 12:28:03;;;;;;;;;;;;;;;24.82;100.00;99413.66;4946724;29;19923;-81
2023/10/14 12:30:35;;;;;;;;;;;;;;;24.85;100.00;99418.59;4943873;29;19922;-81
2023/10/14 12:33:04;;;;;;;;;;;;;;;24.70;100.00;99412.84;4946856;29;20299;-81
2023/10/14 12:35:32;;;;;;;;;;;;;;;24.55;100.00;99404.44;4942496;29;19934;-81
2023/10/14 12:37:58;;;;;;;;;;;;;;;24.29;100.00;99397.66;4947317;29;19922;-81
2023/10/14 12:40:24;;;;;;;;;;;;;;;24.29;100.00;99386.88;4946955;28;19942;-81
2023/10/14 12:42:56;;;;;;;;;;;;;;;24.49;100.00;99378.41;4943911;29;19927;-80
2023/10/14 12:45:25;;;;;;;;;;;;;;;24.71;100.00;99379.41;4946688;29;19930;-81
2023/10/14 12:47:55;;;;;;;;;;;;;;;24.88;100.00;99383.03;4943280;28;20063;-80
2023/10/14 12:50:21;;;;;;;;;;;;;;;24.99;100.00;99372.44;4946298;29;19928;-81
2023/10/14 12:52:49;;;;;;;;;;;;;;;24.95;100.00;99379.38;4944152;29;20665;-81
2023/10/14 12:55:22;;;;;;;;;;;;;;;24.85;100.00;99372.69;4944648;29;19923;-81
2023/10/14 12:57:48;;;;;;;;;;;;;;;24.71;100.00;99379.41;4942951;29;20355;-82
2023/10/14 13:00:25;;;;;;;;;;;;;;;24.62;100.00;99386.25;4944265;29;19950;-81
2023/10/14 13:02:53;;;;;;;;;;;;;;;24.63;100.00;99387.88;4947526;28;20363;-81
2023/10/14 13:05:20;;;;;;;;;;;;;;;24.55;100.00;99385.56;4946225;29;19958;-80
2023/10/14 13:07:52;;;;;;;;;;;;;;;24.69;100.00;99378.81;4943755;29;19923;-81
2023/10/14 13:10:21;;;;;;;;;;;;;;;24.67;100.00;99383.66;4945651;29;20002;-81
2023/10/14 13:12:49;;;;;;;;;;;;;;;24.60;100.00;99374.88;4943951;29;19929;-81
2023/10/14 13:15:16;;;;;;;;;;;;;;;24.52;100.00;99364.44;4944042;29;20010;-82